Time;durP1;ratioP1;P1;durP2;ratioP2;P2;SDS_P1;SDS_P2;PMS_P1;PMS_P2;Temp;Humidity;BMP_temperature;BMP_pressure;BME280_temperature;BME280_humidity;BME280_pressure;Samples;Min_cycle;Max_cycle;Signal;HPM_P1;HPM_P2
2023/12/05 00:01:17;;;;;;;3.08;2.78;;;;;;;-1.05;100.00;96169.56;5077317;28;20412;-79
2023/12/05 00:03:43;;;;;;;2.92;2.63;;;;;;;-1.04;100.00;96173.75;5091889;28;20406;-79
2023/12/05 00:06:10;;;;;;;3.05;2.55;;;;;;;-1.04;100.00;96175.56;5097614;28;20398;-79
2023/12/05 00:08:36;;;;;;;2.78;2.50;;;;;;;-1.04;100.00;96168.56;5098083;28;20874;-80
2023/12/05 00:11:04;;;;;;;3.30;2.90;;;;;;;-1.03;100.00;96161.56;5098361;28;20433;-79
2023/12/05 00:13:30;;;;;;;2.90;2.60;;;;;;;-1.03;100.00;96162.38;5097888;28;20394;-79
2023/12/05 00:15:56;;;;;;;3.00;2.70;;;;;;;-1.03;100.00;96146.00;5098791;28;20398;-80
2023/12/05 00:18:25;;;;;;;3.30;2.87;;;;;;;-1.03;100.00;96144.19;5097836;28;20472;-80
2023/12/05 00:20:51;;;;;;;4.20;2.80;;;;;;;-1.01;100.00;96149.19;5097805;28;20409;-79
2023/12/05 00:23:17;;;;;;;3.67;3.08;;;;;;;-0.99;100.00;96144.59;5097254;28;20484;-79
2023/12/05 00:25:43;;;;;;;3.55;2.97;;;;;;;-1.00;100.00;96141.19;5096531;28;20881;-80
2023/12/05 00:28:09;;;;;;;3.33;3.03;;;;;;;-0.99;100.00;96142.78;5097217;28;20417;-80
2023/12/05 00:30:36;;;;;;;3.08;2.78;;;;;;;-1.01;100.00;96150.00;5097474;28;20889;-79
2023/12/05 00:33:02;;;;;;;3.80;2.90;;;;;;;-1.01;100.00;96154.38;5098261;28;20386;-80
2023/12/05 00:35:29;;;;;;;3.55;2.80;;;;;;;-1.01;100.00;96151.78;5097466;28;20390;-80
2023/12/05 00:37:55;;;;;;;3.45;2.90;;;;;;;-1.00;100.00;96153.38;5099133;28;20410;-79
2023/12/05 00:40:28;;;;;;;2.83;2.50;;;;;;;-0.99;100.00;96153.19;5100031;28;20390;-80
2023/12/05 00:42:54;;;;;;;2.70;2.50;;;;;;;-0.99;100.00;96154.97;5099394;28;20825;-80
2023/12/05 00:45:20;;;;;;;2.88;2.50;;;;;;;-1.01;100.00;96155.19;5097048;28;20725;-80
2023/12/05 00:47:47;;;;;;;2.75;2.50;;;;;;;-1.02;100.00;96156.19;5097516;28;20412;-78
2023/12/05 00:50:13;;;;;;;2.78;2.33;;;;;;;-1.04;100.00;96158.19;5095291;28;20417;-78
2023/12/05 00:52:40;;;;;;;2.85;2.45;;;;;;;-1.07;100.00;96163.00;5093886;28;20406;-78
2023/12/05 00:55:07;;;;;;;2.38;2.17;;;;;;;-1.10;100.00;96168.59;5094705;28;20398;-78
2023/12/05 00:57:33;;;;;;;2.35;2.15;;;;;;;-1.12;100.00;96157.63;5102394;28;20397;-79
2023/12/05 00:59:59;;;;;;;2.92;2.35;;;;;;;-1.16;100.00;96165.03;5102044;28;20386;-78
2023/12/05 01:02:25;;;;;;;3.10;2.70;;;;;;;-1.17;100.00;96174.63;5099313;28;20389;-78
2023/12/05 01:04:51;;;;;;;3.55;2.90;;;;;;;-1.19;100.00;96168.84;5098997;28;20394;-80
2023/12/05 01:07:18;;;;;;;3.42;2.72;;;;;;;-1.20;100.00;96177.63;5098016;28;20806;-77
2023/12/05 01:09:46;;;;;;;3.10;2.50;;;;;;;-1.20;100.00;96182.81;5102658;28;20410;-81
2023/12/05 01:12:12;;;;;;;3.25;2.95;;;;;;;-1.20;100.00;96177.63;5105349;28;20386;-80
2023/12/05 01:14:38;;;;;;;3.00;2.72;;;;;;;-1.19;100.00;96184.41;5104916;28;20390;-80
2023/12/05 01:17:05;;;;;;;2.70;2.50;;;;;;;-1.19;100.00;96184.41;5111039;28;20447;-80
2023/12/05 01:19:31;;;;;;;3.45;2.70;;;;;;;-1.18;100.00;96186.03;5107765;28;20538;-81
2023/12/05 01:21:57;;;;;;;3.17;2.80;;;;;;;-1.17;100.00;96184.22;5102800;28;20386;-79
2023/12/05 01:24:23;;;;;;;3.33;2.78;;;;;;;-1.15;100.00;96184.03;5102999;28;20405;-80
2023/12/05 01:26:51;;;;;;;4.85;3.40;;;;;;;-1.16;100.00;96183.22;5102976;28;20402;-79
2023/12/05 01:29:17;;;;;;;3.50;2.88;;;;;;;-1.07;100.00;96184.59;5101548;28;20398;-79
2023/12/05 01:31:43;;;;;;;2.60;2.40;;;;;;;-1.01;100.00;96190.75;5103695;28;20900;-78
2023/12/05 01:34:10;;;;;;;3.25;2.83;;;;;;;-0.96;100.00;96180.50;5102053;28;20425;-79
2023/12/05 01:36:36;;;;;;;3.53;3.03;;;;;;;-0.92;100.00;96181.72;5101553;28;20436;-79
2023/12/05 01:39:02;;;;;;;4.03;3.10;;;;;;;-0.87;100.00;96185.25;5101046;28;20393;-79
2023/12/05 01:41:28;;;;;;;4.55;3.22;;;;;;;-0.80;100.00;96180.81;5102728;28;20421;-78
2023/12/05 01:43:56;;;;;;;4.77;3.30;;;;;;;-0.72;100.00;96186.78;5102799;28;20498;-79
2023/12/05 01:46:22;;;;;;;3.93;3.00;;;;;;;-0.67;100.00;96189.53;5101737;28;20858;-79
2023/12/05 01:48:49;;;;;;;4.50;3.53;;;;;;;-0.63;100.00;96186.31;5101694;28;20423;-78
2023/12/05 01:51:16;;;;;;;3.47;3.10;;;;;;;-0.60;100.00;96182.53;5101061;28;20414;-79
2023/12/05 01:53:43;;;;;;;3.65;2.97;;;;;;;-0.59;100.00;96176.28;5101947;28;20386;-79
2023/12/05 01:56:12;;;;;;;3.33;3.00;;;;;;;-0.58;100.00;96185.69;5102303;28;20410;-80
2023/12/05 01:58:38;;;;;;;3.92;3.20;;;;;;;-0.56;100.00;96181.88;5098964;28;20387;-78
2023/12/05 02:01:10;;;;;;;4.30;3.40;;;;;;;-0.54;100.00;96173.88;5099569;28;20390;-78
2023/12/05 02:03:38;;;;;;;4.28;3.50;;;;;;;-0.56;100.00;96181.09;5100828;28;20396;-78
2023/12/05 02:06:04;;;;;;;5.35;3.95;;;;;;;-0.54;100.00;96176.47;5100075;28;20462;-78
2023/12/05 02:08:32;;;;;;;5.93;4.28;;;;;;;-0.55;100.00;96180.06;5098788;28;20394;-78
2023/12/05 02:10:58;;;;;;;4.30;3.55;;;;;;;-0.57;100.00;96172.47;5098337;28;20420;-78
2023/12/05 02:13:24;;;;;;;4.50;3.70;;;;;;;-0.65;100.00;96179.72;5098639;28;20395;-78
2023/12/05 02:15:57;;;;;;;3.92;3.30;;;;;;;-0.74;100.00;96178.38;5099986;28;20397;-78
2023/12/05 02:18:31;;;;;;;3.95;3.15;;;;;;;-0.85;100.00;96183.25;5099341;28;20783;-80
2023/12/05 02:21:05;;;;;;;3.20;2.90;;;;;;;-0.93;100.00;96177.50;5097750;28;20478;-80
2023/12/05 02:23:54;;;;;;;4.25;3.53;;;;;;;-1.01;100.00;96175.97;5097241;28;20390;-78
2023/12/05 02:26:28;;;;;;;3.97;3.00;;;;;;;-1.06;100.00;96177.59;5097313;28;20385;-78
2023/12/05 02:28:55;;;;;;;3.80;2.70;;;;;;;-1.11;100.00;96174.81;5096347;28;20390;-78
2023/12/05 02:31:22;;;;;;;3.30;2.75;;;;;;;-1.15;100.00;96176.22;5097447;28;20452;-78
2023/12/05 02:33:49;;;;;;;4.38;2.88;;;;;;;-1.17;100.00;96166.84;5096600;28;20443;-79
2023/12/05 02:36:23;;;;;;;4.25;3.00;;;;;;;-1.19;100.00;96170.66;5096878;28;20394;-78
2023/12/05 02:39:00;;;;;;;5.40;3.50;;;;;;;-1.18;100.00;96180.03;5098518;28;20394;-79
2023/12/05 02:41:29;;;;;;;5.45;3.45;;;;;;;-1.19;100.00;96181.03;5098412;28;20461;-77
2023/12/05 02:44:04;;;;;;;5.15;3.50;;;;;;;-1.20;100.00;96188.00;5097790;28;20390;-78
2023/12/05 02:46:31;;;;;;;6.32;3.60;;;;;;;-1.21;100.00;96193.44;5097038;28;20424;-78
2023/12/05 02:48:59;;;;;;;6.63;3.83;;;;;;;-1.22;100.00;96187.44;5097594;28;20443;-80
2023/12/05 02:51:25;;;;;;;6.30;3.60;;;;;;;-1.23;100.00;96196.25;5099192;28;20406;-80
2023/12/05 02:53:51;;;;;;;6.18;3.60;;;;;;;-1.22;100.00;96184.84;5099803;28;20390;-80
2023/12/05 02:56:19;;;;;;;5.97;3.60;;;;;;;-1.21;100.00;96190.84;5099236;28;20397;-81
2023/12/05 02:58:46;;;;;;;6.18;4.00;;;;;;;-1.19;100.00;96184.41;5098837;28;20397;-80
2023/12/05 03:01:13;;;;;;;9.73;4.10;;;;;;;-1.17;100.00;96197.19;5099441;28;20443;-80
2023/12/05 03:03:39;;;;;;;5.90;3.88;;;;;;;-1.18;100.00;96199.00;5085326;28;20426;-80
2023/12/05 03:06:06;;;;;;;7.13;3.70;;;;;;;-1.18;100.00;96190.41;5079097;28;20445;-80
2023/12/05 03:08:32;;;;;;;6.80;3.92;;;;;;;-1.19;100.00;96189.63;5079157;28;20872;-80
2023/12/05 03:10:58;;;;;;;6.18;3.40;;;;;;;-1.22;100.00;96205.63;5078901;28;20888;-80
2023/12/05 03:13:24;;;;;;;4.70;3.22;;;;;;;-1.23;100.00;96198.03;5078840;28;20506;-79
2023/12/05 03:15:50;;;;;;;6.30;3.72;;;;;;;-1.25;100.00;96202.63;5078805;28;20395;-81
2023/12/05 03:18:18;;;;;;;6.00;3.83;;;;;;;-1.27;100.00;96205.41;5079775;28;20392;-79
2023/12/05 03:20:44;;;;;;;4.97;3.53;;;;;;;-1.30;100.00;96205.84;5078771;28;20388;-80
2023/12/05 03:23:11;;;;;;;6.95;3.85;;;;;;;-1.31;100.00;96206.84;5082770;28;20380;-80
2023/12/05 03:25:37;;;;;;;7.15;3.97;;;;;;;-1.33;100.00;96208.84;5080416;28;20404;-79
2023/12/05 03:28:03;;;;;;;7.88;4.10;;;;;;;-1.29;100.00;96209.25;5077981;28;20402;-80
2023/12/05 03:30:29;;;;;;;8.10;4.50;;;;;;;-1.27;100.00;96213.22;5078791;28;20407;-80
2023/12/05 03:32:55;;;;;;;8.35;4.68;;;;;;;-1.23;100.00;96201.44;5078894;28;20403;-80
2023/12/05 03:35:22;;;;;;;6.95;4.47;;;;;;;-1.19;100.00;96210.38;5078435;28;20446;-79
2023/12/05 03:37:49;;;;;;;7.05;4.10;;;;;;;-1.16;100.00;96204.00;5079051;28;20868;-80
2023/12/05 03:40:15;;;;;;;6.38;4.05;;;;;;;-1.14;100.00;96209.78;5078045;28;20433;-79
2023/12/05 03:42:41;;;;;;;5.77;3.47;;;;;;;-1.13;100.00;96213.19;5078827;28;20403;-80
2023/12/05 03:45:08;;;;;;;4.88;3.30;;;;;;;-1.16;100.00;96204.00;5078433;28;20396;-80
2023/12/05 03:47:34;;;;;;;5.53;3.40;;;;;;;-1.18;100.00;96216.38;5078957;28;20395;-79
2023/12/05 03:50:00;;;;;;;5.60;3.42;;;;;;;-1.21;100.00;96204.63;5079237;28;20415;-79
2023/12/05 03:52:28;;;;;;;4.85;3.20;;;;;;;-1.24;100.00;96206.81;5078931;28;20392;-79
2023/12/05 03:54:54;;;;;;;6.20;3.47;;;;;;;-1.28;100.00;96208.25;5078610;28;20946;-80
2023/12/05 03:57:20;;;;;;;7.10;4.05;;;;;;;-1.31;100.00;96206.84;5079066;28;20388;-79
2023/12/05 03:59:46;;;;;;;8.48;4.25;;;;;;;-1.32;100.00;96213.03;5079161;28;20403;-80
2023/12/05 04:02:12;;;;;;;7.38;4.03;;;;;;;-1.35;100.00;96221.22;5078333;28;20398;-79
2023/12/05 04:04:39;;;;;;;7.07;4.13;;;;;;;-1.36;100.00;96221.44;5078576;28;20388;-79
2023/12/05 04:07:05;;;;;;;6.90;4.15;;;;;;;-1.37;100.00;96218.06;5078451;28;20863;-80
2023/12/05 04:09:33;;;;;;;9.35;4.85;;;;;;;-1.34;100.00;96220.22;5077861;28;20400;-79
2023/12/05 04:11:59;;;;;;;10.32;5.25;;;;;;;-1.31;100.00;96221.63;5078152;28;20867;-79
2023/12/05 04:14:25;;;;;;;9.18;4.82;;;;;;;-1.30;100.00;96226.63;5077970;28;20398;-79
2023/12/05 04:16:51;;;;;;;8.00;4.67;;;;;;;-1.29;100.00;96225.63;5078124;28;20545;-80
2023/12/05 04:19:17;;;;;;;7.22;4.60;;;;;;;-1.28;100.00;96239.41;5077909;28;20891;-80
2023/12/05 04:21:43;;;;;;;9.85;4.80;;;;;;;-1.27;100.00;96241.75;5078191;28;20399;-80
2023/12/05 04:24:10;;;;;;;9.10;4.93;;;;;;;-1.25;100.00;96233.78;5078042;28;20395;-80
2023/12/05 04:26:37;;;;;;;7.80;4.10;;;;;;;-1.24;100.00;96240.56;5077801;28;20421;-80
2023/12/05 04:29:04;;;;;;;7.57;4.15;;;;;;;-1.27;100.00;96233.97;5076757;28;20935;-80
2023/12/05 04:31:30;;;;;;;9.23;4.18;;;;;;;-1.29;100.00;96236.00;5078421;28;20791;-79
2023/12/05 04:33:56;;;;;;;8.80;4.50;;;;;;;-1.25;100.00;96233.78;5081827;28;20804;-80
2023/12/05 04:36:25;;;;;;;9.10;4.25;;;;;;;-1.18;100.00;96235.34;5081967;28;20867;-80
2023/12/05 04:38:52;;;;;;;7.88;4.53;;;;;;;-1.11;100.00;96240.50;5080382;28;20453;-81
2023/12/05 04:41:18;;;;;;;6.82;4.35;;;;;;;-1.05;100.00;96234.50;5082220;28;20402;-80
2023/12/05 04:43:46;;;;;;;5.57;3.72;;;;;;;-1.00;100.00;96237.28;5081771;28;20509;-80
2023/12/05 04:46:12;;;;;;;6.97;3.47;;;;;;;-0.98;100.00;96234.50;5082226;28;20400;-79
2023/12/05 04:48:38;;;;;;;4.60;3.20;;;;;;;-0.97;100.00;96238.66;5082250;28;20407;-79
2023/12/05 04:51:05;;;;;;;6.03;3.40;;;;;;;-1.00;100.00;96241.69;5080643;28;20419;-79
2023/12/05 04:53:31;;;;;;;5.32;3.08;;;;;;;-1.03;100.00;96242.09;5085100;28;20401;-80
2023/12/05 04:55:57;;;;;;;4.20;3.20;;;;;;;-1.08;100.00;96240.13;5080305;28;20407;-81
2023/12/05 04:58:24;;;;;;;5.53;3.47;;;;;;;-1.11;100.00;96245.72;5086674;28;20858;-80
2023/12/05 05:00:52;;;;;;;6.93;3.97;;;;;;;-1.12;100.00;96240.72;5084957;28;20484;-80
2023/12/05 05:03:18;;;;;;;5.72;3.60;;;;;;;-1.14;100.00;96235.75;5085511;28;20403;-80
2023/12/05 05:05:45;;;;;;;6.65;3.55;;;;;;;-1.15;100.00;96238.53;5090524;28;20422;-80
2023/12/05 05:08:11;;;;;;;5.75;3.65;;;;;;;-1.18;100.00;96234.56;5089667;28;20886;-78
2023/12/05 05:10:37;;;;;;;6.43;3.85;;;;;;;-1.19;100.00;96238.16;5092720;28;20922;-79
2023/12/05 05:13:03;;;;;;;6.38;3.80;;;;;;;-1.19;100.00;96233.75;5079565;28;20400;-78
2023/12/05 05:15:29;;;;;;;6.60;4.05;;;;;;;-1.18;100.00;96235.34;5087556;28;20803;-78
2023/12/05 05:17:57;;;;;;;7.20;4.10;;;;;;;-1.16;100.00;96232.56;5086368;28;20455;-80
2023/12/05 05:20:23;;;;;;;5.80;3.60;;;;;;;-1.13;100.00;96242.53;5088088;28;20397;-78
2023/12/05 05:22:50;;;;;;;4.65;3.20;;;;;;;-1.10;100.00;96246.50;5081148;28;20390;-79
2023/12/05 05:25:16;;;;;;;5.30;3.38;;;;;;;-1.09;100.00;96242.91;5091003;28;20963;-79
2023/12/05 05:27:42;;;;;;;6.55;3.50;;;;;;;-1.08;100.00;96249.69;5080485;28;20441;-80
2023/12/05 05:30:10;;;;;;;6.53;3.80;;;;;;;-1.04;100.00;96249.06;5078355;28;20502;-79
2023/12/05 05:32:36;;;;;;;6.13;3.80;;;;;;;-0.98;100.00;96239.69;5078533;28;20875;-80
2023/12/05 05:35:04;;;;;;;5.90;3.97;;;;;;;-0.98;100.00;96237.09;5078536;28;20395;-79
2023/12/05 05:37:31;;;;;;;4.65;3.30;;;;;;;-0.96;100.00;96242.84;5078580;28;20396;-79
2023/12/05 05:39:57;;;;;;;5.38;3.60;;;;;;;-0.96;100.00;96235.84;5078049;28;20388;-79
2023/12/05 05:42:23;;;;;;;4.60;3.60;;;;;;;-0.91;100.00;96237.84;5077825;28;20422;-79
2023/12/05 05:44:49;;;;;;;4.35;3.30;;;;;;;-0.89;100.00;96231.44;5078737;28;20392;-79
2023/12/05 05:47:15;;;;;;;3.80;3.00;;;;;;;-0.91;100.00;96236.06;5080627;28;20748;-81
2023/12/05 05:49:43;;;;;;;5.10;2.90;;;;;;;-0.94;100.00;96239.06;5094230;28;20969;-79
2023/12/05 05:52:10;;;;;;;5.72;3.30;;;;;;;-0.94;100.00;96249.44;5082263;28;20400;-79
2023/12/05 05:54:36;;;;;;;4.13;2.80;;;;;;;-0.97;100.00;96241.25;5077096;28;20453;-78
2023/12/05 05:57:03;;;;;;;3.63;2.83;;;;;;;-1.00;100.00;96239.09;5082512;28;20739;-78
2023/12/05 05:59:29;;;;;;;4.43;2.80;;;;;;;-1.03;100.00;96240.28;5086100;28;20390;-78
2023/12/05 06:01:55;;;;;;;3.95;2.97;;;;;;;-1.03;100.00;96245.47;5086983;28;20398;-79
2023/12/05 06:04:21;;;;;;;4.68;3.10;;;;;;;-1.00;100.00;96245.06;5092089;28;20456;-79
2023/12/05 06:06:48;;;;;;;4.97;2.80;;;;;;;-0.98;100.00;96243.09;5080111;28;20391;-78
2023/12/05 06:09:16;;;;;;;3.70;2.65;;;;;;;-0.99;100.00;96235.50;5078224;28;20446;-77
2023/12/05 06:11:43;;;;;;;3.60;2.70;;;;;;;-1.01;100.00;96242.69;5083192;28;20420;-79
2023/12/05 06:14:09;;;;;;;4.75;3.15;;;;;;;-1.03;100.00;96242.88;5104015;28;20392;-80
2023/12/05 06:16:35;;;;;;;4.00;2.92;;;;;;;-1.02;100.00;96234.09;5095668;28;20398;-79
2023/12/05 06:19:01;;;;;;;5.78;3.30;;;;;;;-1.03;100.00;96239.47;5093761;28;20435;-79
2023/12/05 06:21:27;;;;;;;4.82;3.05;;;;;;;-1.04;100.00;96237.88;5093963;28;20398;-80
2023/12/05 06:23:55;;;;;;;5.80;3.53;;;;;;;-1.03;100.00;96248.06;5095917;28;20413;-81
2023/12/05 06:26:22;;;;;;;5.80;3.45;;;;;;;-0.98;100.00;96248.28;5090173;28;20441;-80
2023/12/05 06:28:48;;;;;;;4.90;3.05;;;;;;;-0.96;100.00;96250.63;5097568;28;20398;-82
2023/12/05 06:31:15;;;;;;;4.50;3.00;;;;;;;-0.98;100.00;96247.47;5092067;28;20424;-82
2023/12/05 06:33:42;;;;;;;6.25;3.10;;;;;;;-0.98;100.00;96261.25;5091947;28;20391;-82
2023/12/05 06:36:09;;;;;;;5.78;3.30;;;;;;;-0.96;100.00;96264.44;5081273;28;20903;-81
2023/12/05 06:38:35;;;;;;;5.38;2.92;;;;;;;-0.98;100.00;96266.44;5079892;28;20399;-79
2023/12/05 06:41:02;;;;;;;3.80;2.80;;;;;;;-1.01;100.00;96266.06;5077160;28;20399;-80
2023/12/05 06:43:29;;;;;;;4.38;3.10;;;;;;;-1.05;100.00;96268.25;5077021;28;20392;-79
2023/12/05 06:45:56;;;;;;;5.97;3.60;;;;;;;-1.05;100.00;96267.47;5088608;28;20446;-79
2023/12/05 06:48:22;;;;;;;7.97;4.20;;;;;;;-0.99;100.00;96262.25;5081025;28;20407;-80
2023/12/05 06:50:48;;;;;;;8.30;4.20;;;;;;;-0.92;100.00;96265.63;5076521;28;20716;-79
2023/12/05 06:53:14;;;;;;;7.13;3.88;;;;;;;-0.85;100.00;96269.00;5077372;28;20453;-79
2023/12/05 06:55:41;;;;;;;5.07;3.37;;;;;;;-0.83;100.00;96272.16;5084088;28;20411;-79
2023/12/05 06:58:07;;;;;;;5.32;3.30;;;;;;;-0.83;100.00;96263.59;5091308;28;20421;-78
2023/12/05 07:00:34;;;;;;;6.15;3.38;;;;;;;-0.81;100.00;96269.34;5106721;28;20401;-80
2023/12/05 07:03:00;;;;;;;6.47;3.70;;;;;;;-0.79;100.00;96270.75;5096266;28;20395;-79
2023/12/05 07:05:27;;;;;;;4.97;3.33;;;;;;;-0.79;100.00;96273.34;5098374;28;20416;-79
2023/12/05 07:07:53;;;;;;;3.72;2.83;;;;;;;-0.82;100.00;96278.94;5094121;28;20386;-78
2023/12/05 07:10:19;;;;;;;4.10;2.92;;;;;;;-0.86;100.00;96279.56;5088391;28;20438;-78
2023/12/05 07:12:45;;;;;;;4.57;3.17;;;;;;;-0.88;100.00;96279.78;5086933;28;20395;-78
2023/12/05 07:15:11;;;;;;;3.42;3.13;;;;;;;-0.91;100.00;96285.41;5089037;28;20423;-78
2023/12/05 07:17:39;;;;;;;3.53;2.83;;;;;;;-0.93;100.00;96289.19;5086266;28;20391;-78
2023/12/05 07:20:06;;;;;;;4.57;3.28;;;;;;;-0.94;100.00;96300.59;5077242;28;20396;-78
2023/12/05 07:22:33;;;;;;;3.60;2.97;;;;;;;-0.94;100.00;96306.59;5084576;28;20482;-78
2023/12/05 07:24:59;;;;;;;3.95;2.80;;;;;;;-0.95;100.00;96311.97;5092655;28;20402;-78
2023/12/05 07:27:25;;;;;;;3.53;2.83;;;;;;;-0.93;100.00;96308.19;5091405;28;20423;-78
2023/12/05 07:29:51;;;;;;;3.90;2.97;;;;;;;-0.94;100.00;96313.56;5090971;28;20433;-78
2023/12/05 07:32:18;;;;;;;4.95;2.65;;;;;;;-0.95;100.00;96307.56;5089288;28;20400;-78
2023/12/05 07:34:45;;;;;;;4.47;2.90;;;;;;;-0.94;100.00;96316.16;5081262;28;20741;-78
2023/12/05 07:37:12;;;;;;;3.90;2.80;;;;;;;-0.95;100.00;96317.16;5084616;28;20390;-78
2023/12/05 07:39:38;;;;;;;5.93;2.83;;;;;;;-0.96;100.00;96323.38;5084936;28;20435;-78
2023/12/05 07:42:05;;;;;;;3.28;2.63;;;;;;;-0.96;100.00;96331.16;5086936;28;20421;-78
2023/12/05 07:44:31;;;;;;;3.03;2.70;;;;;;;-0.94;100.00;96329.97;5087176;28;20390;-78
2023/12/05 07:46:57;;;;;;;3.57;2.70;;;;;;;-0.91;100.00;96332.16;5087820;28;20394;-78
2023/12/05 07:49:23;;;;;;;4.60;2.80;;;;;;;-0.87;100.00;96332.53;5084877;28;20670;-78
2023/12/05 07:51:51;;;;;;;3.85;2.60;;;;;;;-0.84;100.00;96325.13;5089053;28;20417;-79
2023/12/05 07:54:17;;;;;;;4.15;2.72;;;;;;;-0.82;100.00;96319.72;5086333;28;20392;-79
2023/12/05 07:56:43;;;;;;;5.15;2.83;;;;;;;-0.81;100.00;96321.31;5085181;28;20493;-78
2023/12/05 07:59:10;;;;;;;4.22;2.78;;;;;;;-0.79;100.00;96311.53;5084873;28;20528;-78
2023/12/05 08:01:36;;;;;;;3.45;2.80;;;;;;;-0.75;100.00;96317.13;5088136;28;20458;-78
2023/12/05 08:04:02;;;;;;;3.70;2.88;;;;;;;-0.74;100.00;96311.69;5088325;28;20856;-78
2023/12/05 08:06:28;;;;;;;3.97;2.78;;;;;;;-0.71;100.00;96324.28;5101976;28;20398;-79
2023/12/05 08:08:56;;;;;;;3.85;2.60;;;;;;;-0.66;100.00;96327.06;5104387;28;20848;-79
2023/12/05 08:11:22;;;;;;;2.60;2.28;;;;;;;-0.63;100.00;96329.25;5099410;28;20881;-79
2023/12/05 08:13:49;;;;;;;2.60;2.40;;;;;;;-0.57;100.00;96333.63;5103080;28;20892;-78
2023/12/05 08:16:16;;;;;;;3.33;2.30;;;;;;;-0.47;100.00;96339.19;5103967;28;20438;-79
2023/12/05 08:18:42;;;;;;;2.60;2.40;;;;;;;-0.36;100.00;96334.31;5088778;28;20838;-79
2023/12/05 08:21:08;;;;;;;2.85;1.95;;;;;;;-0.26;100.00;96329.47;5089466;28;20875;-80
2023/12/05 08:23:34;;;;;;;2.92;2.08;;;;;;;-0.22;100.00;96333.22;5090921;28;20395;-79
2023/12/05 08:26:02;;;;;;;3.15;2.30;;;;;;;-0.17;100.00;96326.41;5091705;28;20395;-79
2023/12/05 08:28:29;;;;;;;2.30;2.10;;;;;;;-0.12;100.00;96331.78;5091822;28;20387;-80
2023/12/05 08:30:55;;;;;;;2.90;2.10;;;;;;;-0.02;100.00;96331.31;5091168;28;20423;-80
2023/12/05 08:33:21;;;;;;;2.40;2.20;;;;;;;0.04;100.00;96322.69;5090798;28;20458;-80
2023/12/05 08:35:48;;;;;;;7.75;3.00;;;;;;;0.04;100.00;96317.47;5086962;28;20463;-81
2023/12/05 08:38:14;;;;;;;2.97;2.50;;;;;;;0.18;100.00;96318.16;5080770;28;20794;-79
2023/12/05 08:40:40;;;;;;;2.50;2.20;;;;;;;0.23;100.00;96329.53;5080275;28;20392;-80
2023/12/05 08:43:08;;;;;;;2.33;2.10;;;;;;;0.23;100.00;96326.94;5081069;28;20416;-80
2023/12/05 08:45:34;;;;;;;3.03;2.30;;;;;;;0.20;100.00;96329.16;5080799;28;20799;-80
2023/12/05 08:48:00;;;;;;;3.30;2.10;;;;;;;0.13;100.00;96331.03;5080771;28;20419;-81
2023/12/05 08:50:26;;;;;;;6.22;2.90;;;;;;;0.11;100.00;96323.41;5078294;28;20450;-81
2023/12/05 08:52:53;;;;;;;2.47;2.28;;;;;;;0.22;100.00;96335.78;5079120;28;20401;-82
2023/12/05 08:55:19;;;;;;;4.47;2.42;;;;;;;0.29;100.00;96335.72;5079266;28;20429;-82
2023/12/05 08:57:46;;;;;;;3.28;2.38;;;;;;;0.34;100.00;96344.47;5079285;28;20406;-80
2023/12/05 09:00:14;;;;;;;2.63;1.90;;;;;;;0.37;100.00;96343.25;5079094;28;20396;-81
2023/12/05 09:02:40;;;;;;;4.13;2.10;;;;;;;0.42;100.00;96345.22;5080074;28;20432;-81
2023/12/05 09:05:07;;;;;;;3.05;2.28;;;;;;;0.49;100.00;96341.56;5088985;28;20434;-81
2023/12/05 09:07:33;;;;;;;6.72;2.97;;;;;;;0.55;100.00;96351.09;5090412;28;20437;-80
2023/12/05 09:09:59;;;;;;;4.75;2.33;;;;;;;0.61;100.00;96350.25;5092050;28;20781;-79
2023/12/05 09:12:25;;;;;;;5.97;2.78;;;;;;;0.60;100.00;96347.88;5100681;28;20424;-80
2023/12/05 09:14:51;;;;;;;2.45;2.25;;;;;;;0.56;100.00;96349.31;5095698;28;20394;-81
2023/12/05 09:17:20;;;;;;;2.30;2.05;;;;;;;0.53;100.00;96360.94;5094912;28;20794;-80
2023/12/05 09:19:46;;;;;;;3.67;2.40;;;;;;;0.53;100.00;96367.94;5088007;28;20410;-81
2023/12/05 09:22:12;;;;;;;3.63;2.08;;;;;;;0.56;100.00;96363.13;5086834;28;20391;-80
2023/12/05 09:24:39;;;;;;;2.10;1.90;;;;;;;0.56;100.00;96363.13;5088279;28;20400;-81
2023/12/05 09:27:05;;;;;;;5.20;2.40;;;;;;;0.50;100.00;96368.38;5088994;28;20424;-80
2023/12/05 09:29:31;;;;;;;2.70;2.22;;;;;;;0.59;100.00;96372.31;5088587;28;20389;-81
2023/12/05 09:31:58;;;;;;;2.92;1.80;;;;;;;0.59;100.00;96361.91;5085382;28;20423;-81
2023/12/05 09:34:25;;;;;;;2.70;2.17;;;;;;;0.70;100.00;96382.03;5090757;28;20817;-82
2023/12/05 09:36:51;;;;;;;2.72;2.00;;;;;;;0.79;100.00;96378.16;5090702;28;20917;-81
2023/12/05 09:39:17;;;;;;;1.95;1.80;;;;;;;1.02;100.00;96370.53;5086083;28;20392;-82
2023/12/05 09:41:50;;;;;;;2.38;2.17;;;;;;;1.29;100.00;96378.84;5089288;28;20399;-81
2023/12/05 09:44:19;;;;;;;4.13;2.07;;;;;;;1.39;100.00;96381.75;5090515;28;20410;-81
2023/12/05 09:46:50;;;;;;;2.42;1.90;;;;;;;1.66;100.00;96384.03;5090724;28;20440;-81
2023/12/05 09:49:18;;;;;;;1.60;1.50;;;;;;;2.26;100.00;96385.66;5084295;28;20434;-81
2023/12/05 09:51:46;;;;;;;1.70;1.60;;;;;;;3.19;100.00;96376.31;5087695;28;20498;-79
2023/12/05 09:54:14;;;;;;;1.55;1.45;;;;;;;3.95;100.00;96381.28;5089657;28;20397;-80
2023/12/05 09:56:40;;;;;;;1.40;1.20;;;;;;;4.52;100.00;96387.25;5087846;28;20392;-78
2023/12/05 09:59:07;;;;;;;1.75;1.30;;;;;;;4.89;100.00;96382.34;5087573;28;20823;-78
2023/12/05 10:01:35;;;;;;;3.08;1.60;;;;;;;5.08;100.00;96380.28;5089527;28;20410;-78
2023/12/05 10:04:04;;;;;;;1.80;1.50;;;;;;;5.27;100.00;96378.94;5088068;28;20420;-78
2023/12/05 10:06:33;;;;;;;2.15;1.60;;;;;;;5.34;100.00;96382.19;5077170;28;20876;-79
2023/12/05 10:09:02;;;;;;;1.52;1.40;;;;;;;5.32;100.00;96384.28;5080406;28;20421;-80
2023/12/05 10:11:30;;;;;;;2.40;1.60;;;;;;;5.25;100.00;96370.56;5090474;28;20418;-81
2023/12/05 10:13:57;;;;;;;3.05;1.85;;;;;;;5.26;100.00;96368.72;5086476;28;20386;-82
2023/12/05 10:16:26;;;;;;;2.30;1.50;;;;;;;5.50;100.00;96367.44;5091506;28;20436;-78
2023/12/05 10:18:53;;;;;;;2.53;1.50;;;;;;;5.53;100.00;96374.84;5103394;28;20813;-77
2023/12/05 10:21:19;;;;;;;1.52;1.30;;;;;;;5.91;100.00;96360.09;5086802;28;20407;-80
2023/12/05 10:23:45;;;;;;;1.47;1.37;;;;;;;6.23;100.00;96368.84;5087965;28;20466;-80
2023/12/05 10:26:13;;;;;;;2.85;1.60;;;;;;;6.24;100.00;96354.63;5089163;28;20446;-81
2023/12/05 10:28:49;;;;;;;2.53;1.60;;;;;;;6.18;100.00;96366.94;5091964;28;20394;-81
2023/12/05 10:31:16;;;;;;;2.47;1.75;;;;;;;6.34;100.00;96354.75;5081196;28;20784;-82
2023/12/05 10:33:43;;;;;;;2.83;1.65;;;;;;;6.34;100.00;96352.13;5080243;28;20401;-81
2023/12/05 10:36:13;;;;;;;4.30;2.00;;;;;;;6.46;100.00;96357.22;5086187;28;20876;-80
2023/12/05 10:38:43;;;;;;;2.60;1.65;;;;;;;6.31;100.00;96350.00;5090672;28;20427;-80
2023/12/05 10:41:10;;;;;;;3.47;1.60;;;;;;;6.54;100.00;96346.25;5092005;28;20746;-81
2023/12/05 10:43:37;;;;;;;1.70;1.40;;;;;;;6.85;100.00;96350.69;5095371;28;20886;-81
2023/12/05 10:46:05;;;;;;;3.47;1.55;;;;;;;7.18;100.00;96339.06;5082854;28;20414;-79
2023/12/05 10:48:31;;;;;;;5.07;1.80;;;;;;;7.21;100.00;96325.41;5086739;28;20422;-80
2023/12/05 10:50:58;;;;;;;1.92;1.42;;;;;;;7.26;100.00;96311.47;5087798;28;20414;-81
2023/12/05 10:53:26;;;;;;;2.75;1.55;;;;;;;7.27;100.00;96302.53;5085131;28;20840;-81
2023/12/05 10:55:52;;;;;;;4.75;2.20;;;;;;;7.16;100.00;96308.78;5086065;28;20867;-80
2023/12/05 10:58:19;;;;;;;1.63;1.53;;;;;;;7.24;100.00;96314.34;5078824;28;20856;-81
2023/12/05 11:00:48;;;;;;;3.80;1.35;;;;;;;6.94;100.00;96311.53;5078269;28;20396;-81
2023/12/05 11:03:14;;;;;;;2.70;1.40;;;;;;;6.81;100.00;96310.16;5079813;28;20410;-83
2023/12/05 11:05:40;;;;;;;1.80;1.40;;;;;;;7.08;100.00;96315.31;5079360;28;20434;-80
2023/12/05 11:08:07;;;;;;;2.65;1.27;;;;;;;7.07;100.00;96312.97;5079239;28;20396;-81
2023/12/05 11:10:33;;;;;;;1.65;1.15;;;;;;;7.21;100.00;96317.50;5079067;28;20415;-81
2023/12/05 11:13:02;;;;;;;3.03;1.52;;;;;;;7.14;100.00;96313.53;5085375;28;20415;-80
2023/12/05 11:15:34;;;;;;;2.08;1.35;;;;;;;7.26;100.00;96303.56;5092106;28;20392;-79
2023/12/05 11:18:10;;;;;;;2.40;1.40;;;;;;;7.13;100.00;96306.66;5076689;28;20418;-80
2023/12/05 11:20:53;;;;;;;3.25;1.50;;;;;;;6.88;100.00;96299.41;5076941;28;20399;-80
2023/12/05 11:23:32;;;;;;;1.75;1.20;;;;;;;7.07;100.00;96305.81;5078059;28;20388;-80
2023/12/05 11:26:11;;;;;;;3.05;1.50;;;;;;;7.03;100.00;96296.88;5083234;28;20394;-80